createdAt,value
2022-11-05T00:02:19.741Z,5.38
2022-11-05T00:05:39.511Z,5.40
2022-11-05T00:09:00.180Z,5.43
2022-11-05T00:12:29.474Z,5.47
2022-11-05T00:15:49.996Z,5.48
2022-11-05T00:19:06.856Z,5.53
2022-11-05T00:22:26.972Z,5.56
2022-11-05T00:25:29.918Z,5.60
2022-11-05T00:28:32.817Z,5.62
2022-11-05T00:31:34.344Z,5.66
2022-11-05T00:34:35.858Z,5.70
2022-11-05T00:37:37.457Z,5.72
2022-11-05T00:40:39.205Z,5.76
2022-11-05T00:43:59.446Z,5.75
2022-11-05T00:47:19.593Z,5.79
2022-11-05T00:50:22.355Z,5.81
2022-11-05T00:53:23.848Z,5.83
2022-11-05T00:56:25.446Z,5.87
2022-11-05T00:59:26.992Z,5.87
2022-11-05T01:02:28.560Z,5.90
2022-11-05T01:05:31.687Z,5.93
2022-11-05T01:08:33.579Z,5.94
2022-11-05T01:11:36.905Z,5.96
2022-11-05T01:14:38.528Z,5.99
2022-11-05T01:17:41.169Z,5.98
2022-11-05T01:20:42.796Z,6.01
2022-11-05T01:23:44.341Z,6.04
2022-11-05T01:26:45.803Z,6.07
2022-11-05T01:29:47.325Z,6.07
2022-11-05T01:32:49.346Z,6.11
2022-11-05T01:35:51.886Z,6.11
2022-11-05T01:38:53.621Z,6.10
2022-11-05T01:41:55.118Z,6.13
2022-11-05T01:45:04.228Z,6.14
2022-11-05T01:48:15.627Z,6.11
2022-11-05T01:51:21.922Z,6.15
2022-11-05T01:54:27.669Z,6.17
2022-11-05T01:57:30.975Z,6.11
2022-11-05T02:00:33.637Z,6.19
2022-11-05T02:03:35.942Z,6.21
2022-11-05T02:06:46.206Z,6.25
2022-11-05T02:10:15.615Z,6.25
2022-11-05T02:13:17.188Z,6.27
2022-11-05T02:16:27.324Z,6.27
2022-11-05T02:19:55.706Z,6.31
2022-11-05T02:23:03.290Z,6.31
2022-11-05T02:26:07.766Z,6.34
2022-11-05T02:29:40.129Z,6.35
2022-11-05T02:32:53.266Z,6.38
2022-11-05T02:36:10.180Z,6.39
2022-11-05T02:39:11.663Z,6.42
2022-11-05T02:42:28.410Z,6.43
2022-11-05T02:45:38.270Z,6.44
2022-11-05T02:48:45.928Z,6.50
2022-11-05T02:51:57.116Z,6.53
2022-11-05T02:55:12.026Z,6.58
2022-11-05T02:58:13.547Z,6.59
2022-11-05T03:01:15.297Z,6.68
2022-11-05T03:04:20.654Z,6.72
2022-11-05T03:07:31.031Z,6.75
2022-11-05T03:10:48.408Z,6.80
2022-11-05T03:14:08.564Z,6.83
2022-11-05T03:17:29.326Z,6.85
2022-11-05T03:21:05.224Z,6.89
2022-11-05T03:24:30.963Z,6.93
2022-11-05T03:27:37.748Z,6.95
2022-11-05T03:30:42.355Z,6.97
2022-11-05T03:33:44.946Z,7.00
2022-11-05T03:36:51.460Z,7.01
2022-11-05T03:39:59.687Z,7.04
2022-11-05T03:43:03.752Z,7.05
2022-11-05T03:46:10.803Z,7.07
2022-11-05T03:49:19.276Z,7.08
2022-11-05T03:52:26.097Z,7.08
2022-11-05T03:55:35.420Z,7.05
2022-11-05T03:58:41.729Z,7.14
2022-11-05T04:01:44.069Z,7.13
2022-11-05T04:04:46.117Z,7.19
2022-11-05T04:08:10.041Z,7.22
2022-11-05T04:11:34.239Z,7.25
2022-11-05T04:14:35.753Z,7.20
2022-11-05T04:17:37.263Z,7.23
2022-11-05T04:20:57.474Z,7.29
2022-11-05T04:24:11.000Z,7.31
2022-11-05T04:27:12.509Z,7.31
2022-11-05T04:30:19.505Z,7.31
2022-11-05T04:33:21.116Z,7.31
2022-11-05T04:36:22.648Z,7.32
2022-11-05T04:39:24.161Z,7.30
2022-11-05T04:42:25.691Z,7.30
2022-11-05T04:45:29.690Z,7.31
2022-11-05T04:48:31.247Z,7.30
2022-11-05T04:51:32.842Z,7.29
2022-11-05T04:54:34.373Z,7.30
2022-11-05T04:57:36.397Z,7.28
2022-11-05T05:00:38.093Z,7.27
2022-11-05T05:03:39.755Z,7.28
2022-11-05T05:06:41.269Z,7.27
2022-11-05T05:09:42.800Z,7.28
2022-11-05T05:12:44.354Z,7.27
2022-11-05T05:15:45.943Z,7.23
2022-11-05T05:18:48.771Z,7.25
2022-11-05T05:21:50.318Z,7.25
2022-11-05T05:24:53.039Z,7.24
2022-11-05T05:27:58.097Z,7.25
2022-11-05T05:31:00.712Z,7.26
2022-11-05T05:34:03.247Z,7.24
2022-11-05T05:37:04.881Z,7.27
2022-11-05T05:40:06.985Z,7.28
2022-11-05T05:43:08.763Z,7.26
2022-11-05T05:46:13.516Z,7.28
2022-11-05T05:49:15.038Z,7.30
2022-11-05T05:52:16.567Z,7.30
2022-11-05T05:55:18.066Z,7.28
2022-11-05T05:58:19.573Z,7.32
2022-11-05T06:01:21.717Z,7.33
2022-11-05T06:04:23.316Z,7.34
2022-11-05T06:07:24.815Z,7.36
2022-11-05T06:10:26.369Z,7.35
2022-11-05T06:13:28.395Z,7.38
2022-11-05T06:16:35.739Z,7.38
2022-11-05T06:19:37.235Z,7.39
2022-11-05T06:22:38.922Z,7.39
2022-11-05T06:25:41.531Z,7.40
2022-11-05T06:28:43.776Z,7.40
2022-11-05T06:31:45.313Z,7.41
2022-11-05T06:34:46.823Z,7.41
2022-11-05T06:37:48.353Z,7.44
2022-11-05T06:40:49.890Z,7.45
2022-11-05T06:43:51.680Z,7.46
2022-11-05T06:46:53.234Z,7.48
2022-11-05T06:49:56.173Z,7.50
2022-11-05T06:52:59.749Z,7.51
2022-11-05T06:56:05.913Z,7.50
2022-11-05T06:59:08.549Z,7.52
2022-11-05T07:02:13.235Z,7.43
2022-11-05T07:05:16.391Z,7.49
2022-11-05T07:08:17.945Z,7.52
2022-11-05T07:11:19.688Z,7.55
2022-11-05T07:14:21.229Z,7.56
2022-11-05T07:17:23.178Z,7.55
2022-11-05T07:20:28.216Z,7.56
2022-11-05T07:23:32.328Z,7.57
2022-11-05T07:26:34.786Z,7.60
2022-11-05T07:29:36.434Z,7.61
2022-11-05T07:32:39.949Z,7.55
2022-11-05T07:35:41.499Z,7.66
2022-11-05T07:38:43.241Z,7.68
2022-11-05T07:41:44.736Z,7.71
2022-11-05T07:44:46.298Z,7.72
2022-11-05T07:47:51.852Z,7.74
2022-11-05T07:50:53.428Z,7.75
2022-11-05T07:53:54.971Z,7.79
2022-11-05T07:56:56.547Z,7.78
2022-11-05T07:59:58.119Z,7.83
2022-11-05T08:03:08.265Z,7.85
2022-11-05T08:06:10.401Z,7.86
2022-11-05T08:09:12.002Z,7.89
2022-11-05T08:12:13.581Z,7.83
2022-11-05T08:15:15.201Z,7.91
2022-11-05T08:18:17.743Z,7.92
2022-11-05T08:21:19.265Z,7.96
2022-11-05T08:24:20.872Z,7.92
2022-11-05T08:27:22.409Z,8.05
2022-11-05T08:30:24.600Z,8.11
2022-11-05T08:33:26.255Z,8.15
2022-11-05T08:36:27.759Z,8.17
2022-11-05T08:39:29.367Z,8.21
2022-11-05T08:42:30.856Z,8.22
2022-11-05T08:45:33.636Z,8.21
2022-11-05T08:48:35.214Z,8.19
2022-11-05T08:51:36.813Z,8.22
2022-11-05T08:54:38.501Z,8.22
2022-11-05T08:57:40.107Z,8.27
2022-11-05T09:00:42.472Z,8.29
2022-11-05T09:03:44.148Z,8.32
2022-11-05T09:06:45.732Z,8.32
2022-11-05T09:09:47.279Z,8.35
2022-11-05T09:12:48.824Z,8.35
2022-11-05T09:15:51.197Z,8.34
2022-11-05T09:18:53.009Z,8.36
2022-11-05T09:21:54.751Z,8.35
2022-11-05T09:24:56.267Z,8.35
2022-11-05T09:28:16.416Z,8.34
2022-11-05T09:31:18.548Z,8.34
2022-11-05T09:34:20.079Z,8.30
2022-11-05T09:37:21.968Z,8.34
2022-11-05T09:40:25.802Z,8.33
2022-11-05T09:43:51.670Z,8.31
2022-11-05T09:47:01.600Z,8.29
2022-11-05T09:50:07.875Z,8.28
2022-11-05T09:53:14.352Z,8.28
2022-11-05T09:56:35.008Z,8.29
2022-11-05T09:59:44.892Z,8.31
2022-11-05T10:02:51.442Z,8.32
2022-11-05T10:05:57.108Z,8.33
2022-11-05T10:09:23.859Z,8.36
2022-11-05T10:12:45.640Z,8.40
2022-11-05T10:15:57.602Z,8.43
2022-11-05T10:19:07.283Z,8.48
2022-11-05T10:22:16.190Z,8.53
2022-11-05T10:25:20.162Z,8.57
2022-11-05T10:28:29.654Z,8.65
2022-11-05T10:31:35.964Z,8.71
2022-11-05T10:34:39.474Z,8.75
2022-11-05T10:37:41.373Z,8.80
2022-11-05T10:41:20.617Z,8.88
2022-11-05T10:44:40.180Z,8.96
2022-11-05T10:48:01.771Z,9.05
2022-11-05T10:51:03.463Z,9.06
2022-11-05T10:54:13.911Z,9.07
2022-11-05T10:57:30.575Z,9.06
2022-11-05T11:00:32.253Z,9.02
2022-11-05T11:03:39.772Z,9.04
2022-11-05T11:06:48.460Z,9.02
2022-11-05T11:09:51.098Z,8.99
2022-11-05T11:12:53.457Z,9.00
2022-11-05T11:16:12.923Z,8.95
2022-11-05T11:19:20.374Z,8.95
2022-11-05T11:22:22.101Z,8.97
2022-11-05T11:25:25.654Z,8.95
2022-11-05T11:28:33.603Z,8.95
2022-11-05T11:31:39.399Z,9.01
2022-11-05T11:34:42.680Z,9.03
2022-11-05T11:37:45.758Z,9.06
2022-11-05T11:40:47.284Z,9.10
2022-11-05T11:43:49.072Z,9.09
2022-11-05T11:46:55.060Z,9.12
2022-11-05T11:49:59.126Z,9.16
2022-11-05T11:53:17.146Z,9.18
2022-11-05T11:56:21.280Z,9.19
2022-11-05T11:59:40.572Z,9.20
2022-11-05T12:02:54.811Z,9.23
2022-11-05T12:06:31.107Z,9.23
2022-11-05T12:09:56.073Z,9.24
2022-11-05T12:13:19.177Z,9.24
2022-11-05T12:16:42.131Z,9.25
2022-11-05T12:20:13.784Z,9.27
2022-11-05T12:23:30.378Z,9.28
2022-11-05T12:26:50.793Z,9.28
2022-11-05T12:29:54.939Z,9.32
2022-11-05T12:33:08.858Z,9.32
2022-11-05T12:36:19.085Z,9.33
2022-11-05T12:39:44.118Z,9.36
2022-11-05T12:42:48.759Z,9.39
2022-11-05T12:46:05.367Z,9.43
2022-11-05T12:49:09.844Z,9.44
2022-11-05T12:52:29.602Z,9.45
2022-11-05T12:55:42.784Z,9.45
2022-11-05T12:59:12.728Z,9.46
2022-11-05T13:02:33.350Z,9.45
2022-11-05T13:05:43.387Z,9.47
2022-11-05T13:08:54.405Z,9.45
2022-11-05T13:12:10.431Z,9.42
2022-11-05T13:15:44.112Z,9.39
2022-11-05T13:19:17.021Z,9.38
2022-11-05T13:22:40.223Z,9.38
2022-11-05T13:25:50.055Z,9.40
2022-11-05T13:29:02.676Z,9.42
2022-11-05T13:32:28.007Z,9.42
2022-11-05T13:35:40.570Z,9.40
2022-11-05T13:39:02.731Z,9.25
2022-11-05T13:42:10.401Z,9.14
2022-11-05T13:45:21.029Z,9.08
2022-11-05T13:48:53.609Z,9.04
2022-11-05T13:52:47.317Z,9.01
2022-11-05T13:55:54.641Z,8.99
2022-11-05T13:59:30.445Z,8.99
2022-11-05T14:02:51.104Z,8.96
2022-11-05T14:06:02.118Z,8.91
2022-11-05T14:09:08.807Z,8.97
2022-11-05T14:12:21.759Z,8.94
2022-11-05T14:15:28.753Z,9.00
2022-11-05T14:18:41.248Z,9.01
2022-11-05T14:21:53.196Z,8.99
2022-11-05T14:24:54.765Z,9.00
2022-11-05T14:27:58.296Z,9.00
2022-11-05T14:30:59.912Z,9.00
2022-11-05T14:34:10.217Z,8.98
2022-11-05T14:37:11.813Z,8.96
2022-11-05T14:40:26.147Z,8.93
2022-11-05T14:43:31.825Z,8.84
2022-11-05T14:46:48.007Z,8.81
2022-11-05T14:49:59.029Z,8.76
2022-11-05T14:53:10.375Z,8.71
2022-11-05T14:56:16.699Z,8.69
2022-11-05T14:59:24.233Z,8.67
2022-11-05T15:02:32.172Z,8.63
2022-11-05T15:05:40.003Z,8.59
2022-11-05T15:08:47.608Z,8.55
2022-11-05T15:12:00.297Z,8.55
2022-11-05T15:15:22.767Z,8.53
2022-11-05T15:18:33.275Z,8.49
2022-11-05T15:21:37.846Z,8.47
2022-11-05T15:24:42.231Z,8.47
2022-11-05T15:28:05.318Z,8.49
2022-11-05T15:31:12.997Z,8.50
2022-11-05T15:34:18.424Z,8.49
2022-11-05T15:37:24.151Z,8.52
2022-11-05T15:40:28.473Z,8.48
2022-11-05T15:43:30.255Z,8.57
2022-11-05T15:46:31.937Z,8.58
2022-11-05T15:49:33.808Z,8.58
2022-11-05T15:52:42.078Z,8.59
2022-11-05T15:55:53.046Z,8.59
2022-11-05T15:59:03.026Z,8.61
2022-11-05T16:02:23.818Z,8.61
2022-11-05T16:05:28.279Z,8.61
2022-11-05T16:08:31.485Z,8.58
2022-11-05T16:11:33.015Z,8.57
2022-11-05T16:14:35.359Z,8.54
2022-11-05T16:17:39.890Z,8.51
2022-11-05T16:20:41.392Z,8.47
2022-11-05T16:24:00.954Z,8.44
2022-11-05T16:27:05.326Z,8.44
2022-11-05T16:30:17.691Z,8.40
2022-11-05T16:33:19.284Z,8.41
2022-11-05T16:36:21.731Z,8.37
2022-11-05T16:39:24.238Z,8.37
2022-11-05T16:42:36.423Z,8.36
2022-11-05T16:45:41.255Z,8.34
2022-11-05T16:48:43.116Z,8.32
2022-11-05T16:51:44.862Z,8.31
2022-11-05T16:54:46.418Z,8.30
2022-11-05T16:57:52.255Z,8.26
2022-11-05T17:01:02.773Z,8.18
2022-11-05T17:04:04.397Z,8.22
2022-11-05T17:07:05.931Z,8.21
2022-11-05T17:10:07.788Z,8.18
2022-11-05T17:13:14.857Z,8.15
2022-11-05T17:16:17.885Z,8.13
2022-11-05T17:19:19.838Z,8.11
2022-11-05T17:22:21.334Z,8.07
2022-11-05T17:25:23.058Z,8.10
2022-11-05T17:28:24.606Z,8.06
2022-11-05T17:31:27.279Z,8.07
2022-11-05T17:34:28.812Z,8.04
2022-11-05T17:37:30.839Z,8.05
2022-11-05T17:40:34.421Z,8.01
2022-11-05T17:43:36.080Z,7.98
2022-11-05T17:46:37.602Z,7.99
2022-11-05T17:49:39.136Z,7.97
2022-11-05T17:52:40.738Z,7.96
2022-11-05T17:55:44.012Z,7.96
2022-11-05T17:58:45.653Z,7.96
2022-11-05T18:01:47.391Z,7.95
2022-11-05T18:04:49.072Z,7.92
2022-11-05T18:07:51.050Z,7.91
2022-11-05T18:10:53.144Z,7.89
2022-11-05T18:13:54.673Z,7.89
2022-11-05T18:17:00.048Z,7.85
2022-11-05T18:20:02.471Z,7.84
2022-11-05T18:23:04.272Z,7.84
2022-11-05T18:26:14.271Z,7.82
2022-11-05T18:29:15.988Z,7.80
2022-11-05T18:32:17.912Z,7.82
2022-11-05T18:35:20.479Z,7.79
2022-11-05T18:38:22.021Z,7.80
2022-11-05T18:41:24.139Z,7.77
2022-11-05T18:44:25.763Z,7.79
2022-11-05T18:47:27.339Z,7.77
2022-11-05T18:50:29.423Z,7.79
2022-11-05T18:53:30.972Z,7.80
2022-11-05T18:56:32.597Z,7.76
2022-11-05T18:59:38.204Z,7.79
2022-11-05T19:02:40.980Z,7.75
2022-11-05T19:05:42.654Z,7.70
2022-11-05T19:08:44.757Z,7.68
2022-11-05T19:11:46.356Z,7.64
2022-11-05T19:14:47.905Z,7.62
2022-11-05T19:17:49.473Z,7.59
2022-11-05T19:20:50.979Z,7.57
2022-11-05T19:23:53.484Z,7.56
2022-11-05T19:26:55.445Z,7.53
2022-11-05T19:29:57.041Z,7.53
2022-11-05T19:32:58.599Z,7.52
2022-11-05T19:36:03.820Z,7.50
2022-11-05T19:39:08.954Z,7.51
2022-11-05T19:42:10.510Z,7.50
2022-11-05T19:45:38.354Z,7.48
2022-11-05T19:48:33.755Z,7.48
2022-11-05T19:51:35.438Z,7.47
2022-11-05T19:54:37.479Z,7.47
2022-11-05T19:57:39.111Z,7.48
2022-11-05T20:00:40.636Z,7.49
2022-11-05T20:03:42.337Z,7.48
2022-11-05T20:06:44.476Z,7.48
2022-11-05T20:09:46.408Z,7.49
2022-11-05T20:12:47.949Z,7.47
2022-11-05T20:15:49.618Z,7.47
2022-11-05T20:18:51.740Z,7.47
2022-11-05T20:21:53.356Z,7.45
2022-11-05T20:24:54.874Z,7.43
2022-11-05T20:27:57.205Z,7.45
2022-11-05T20:30:59.323Z,7.46
2022-11-05T20:34:00.843Z,7.43
2022-11-05T20:37:02.547Z,7.41
2022-11-05T20:40:04.587Z,7.39
2022-11-05T20:43:06.382Z,7.30
2022-11-05T20:46:11.328Z,7.29
2022-11-05T20:49:13.410Z,7.28
2022-11-05T20:52:17.515Z,7.22
2022-11-05T20:55:19.437Z,7.15
2022-11-05T20:58:21.247Z,7.07
2022-11-05T21:01:23.193Z,7.02
2022-11-05T21:04:24.974Z,7.03
2022-11-05T21:07:26.779Z,6.90
2022-11-05T21:10:28.649Z,6.80
2022-11-05T21:13:30.544Z,6.68
2022-11-05T21:16:32.359Z,6.66
2022-11-05T21:19:56.660Z,6.51
2022-11-05T21:23:01.906Z,6.46
2022-11-05T21:26:08.482Z,6.37
2022-11-05T21:29:10.882Z,6.30
2022-11-05T21:32:12.779Z,6.26
2022-11-05T21:35:15.170Z,6.17
2022-11-05T21:38:18.260Z,6.05
2022-11-05T21:41:20.102Z,6.01
2022-11-05T21:44:21.846Z,5.94
2022-11-05T21:47:23.712Z,5.90
2022-11-05T21:50:45.508Z,5.72
2022-11-05T21:54:06.730Z,5.71
2022-11-05T21:57:33.210Z,5.58
2022-11-05T22:00:35.190Z,5.47
2022-11-05T22:03:36.903Z,5.42
2022-11-05T22:06:38.652Z,5.34
2022-11-05T22:09:40.668Z,5.31
2022-11-05T22:12:42.413Z,5.17
2022-11-05T22:15:53.920Z,5.21
2022-11-05T22:18:59.160Z,5.06
2022-11-05T22:22:01.390Z,4.99
2022-11-05T22:25:04.092Z,5.01
2022-11-05T22:28:05.966Z,4.97
2022-11-05T22:31:15.663Z,4.96
2022-11-05T22:34:17.600Z,4.84
2022-11-05T22:37:19.474Z,4.86
2022-11-05T22:40:24.027Z,4.70
2022-11-05T22:43:26.078Z,4.78
2022-11-05T22:46:28.005Z,4.59
2022-11-05T22:49:29.837Z,4.66
2022-11-05T22:52:32.838Z,4.55
2022-11-05T22:55:39.307Z,4.53
2022-11-05T22:58:41.357Z,4.55
2022-11-05T23:01:44.854Z,4.53
2022-11-05T23:04:46.931Z,4.48
2022-11-05T23:08:07.372Z,4.38
2022-11-05T23:11:41.098Z,4.39
2022-11-05T23:14:42.925Z,4.37
2022-11-05T23:18:03.203Z,4.32
2022-11-05T23:21:23.542Z,4.35
2022-11-05T23:24:25.335Z,4.31
2022-11-05T23:27:33.012Z,4.28
2022-11-05T23:30:34.814Z,4.24
2022-11-05T23:33:37.471Z,4.24
2022-11-05T23:36:57.905Z,4.10
2022-11-05T23:39:59.767Z,3.99
2022-11-05T23:43:20.091Z,4.12
2022-11-05T23:46:40.529Z,3.98
2022-11-05T23:49:42.268Z,4.07
2022-11-05T23:52:44.073Z,3.98
2022-11-05T23:55:45.780Z,3.81
2022-11-05T23:58:47.730Z,3.85
